createdAt,value
2018-11-02T00:00:32.882Z,12.00
2018-11-02T00:03:00.458Z,10.43
2018-11-02T00:05:28.034Z,11.70
2018-11-02T00:07:55.599Z,12.25
2018-11-02T00:10:23.187Z,11.38
2018-11-02T00:12:50.735Z,10.85
2018-11-02T00:15:18.277Z,11.05
2018-11-02T00:17:45.878Z,9.93
2018-11-02T00:20:13.453Z,12.45
2018-11-02T00:22:41.015Z,11.40
2018-11-02T00:25:08.573Z,10.43
2018-11-02T00:27:36.198Z,10.80
2018-11-02T00:30:03.875Z,12.10
2018-11-02T00:32:31.425Z,11.68
2018-11-02T00:34:58.989Z,11.93
2018-11-02T00:37:26.567Z,11.93
2018-11-02T00:39:54.122Z,13.30
2018-11-02T00:42:21.705Z,13.10
2018-11-02T00:44:49.275Z,12.78
2018-11-02T00:47:16.807Z,11.65
2018-11-02T00:49:44.321Z,12.75
2018-11-02T00:52:11.865Z,13.25
2018-11-02T00:54:39.395Z,12.15
2018-11-02T00:57:06.968Z,13.20
2018-11-02T00:59:34.493Z,13.03
2018-11-02T01:02:02.045Z,14.00
2018-11-02T01:04:29.589Z,11.80
2018-11-02T01:06:57.200Z,12.60
2018-11-02T01:09:24.746Z,13.08
2018-11-02T01:11:52.314Z,11.68
2018-11-02T01:14:19.874Z,13.03
2018-11-02T01:16:47.506Z,13.15
2018-11-02T01:19:15.008Z,13.35
2018-11-02T01:21:42.563Z,13.80
2018-11-02T01:24:10.111Z,13.10
2018-11-02T01:26:37.676Z,11.00
2018-11-02T01:29:05.258Z,11.40
2018-11-02T01:31:32.770Z,11.85
2018-11-02T01:34:00.310Z,11.35
2018-11-02T01:36:28.800Z,12.15
2018-11-02T01:38:56.378Z,10.80
2018-11-02T01:41:23.985Z,11.95
2018-11-02T01:43:51.522Z,11.68
2018-11-02T01:46:19.063Z,11.70
2018-11-02T01:48:46.669Z,10.72
2018-11-02T01:51:14.240Z,11.70
2018-11-02T01:53:41.734Z,11.03
2018-11-02T01:56:09.283Z,11.50
2018-11-02T01:58:36.845Z,10.32
2018-11-02T02:01:04.413Z,11.00
2018-11-02T02:03:31.942Z,11.73
2018-11-02T02:05:59.475Z,10.00
2018-11-02T02:08:27.036Z,11.12
2018-11-02T02:10:54.571Z,11.75
2018-11-02T02:13:22.286Z,12.18
2018-11-02T02:15:49.719Z,11.22
2018-11-02T02:18:17.250Z,11.20
2018-11-02T02:20:44.815Z,11.43
2018-11-02T02:23:13.157Z,11.38
2018-11-02T02:25:40.789Z,11.85
2018-11-02T02:28:08.347Z,11.35
2018-11-02T02:30:35.944Z,11.25
2018-11-02T02:33:03.596Z,10.25
2018-11-02T02:35:31.150Z,11.70
2018-11-02T02:37:58.683Z,10.82
2018-11-02T02:40:27.079Z,10.20
2018-11-02T02:42:54.648Z,11.65
2018-11-02T02:45:22.199Z,10.95
2018-11-02T02:47:49.753Z,11.05
2018-11-02T02:50:17.342Z,10.53
2018-11-02T02:52:44.906Z,11.75
2018-11-02T02:55:12.448Z,11.28
2018-11-02T02:57:40.001Z,10.93
2018-11-02T03:00:09.505Z,10.72
2018-11-02T03:02:37.066Z,11.22
2018-11-02T03:05:04.790Z,10.10
2018-11-02T03:07:32.347Z,11.08
2018-11-02T03:09:59.869Z,11.38
2018-11-02T03:12:27.445Z,12.40
2018-11-02T03:14:55.011Z,11.48
2018-11-02T03:17:22.553Z,11.48
2018-11-02T03:19:50.127Z,11.12
2018-11-02T03:22:17.694Z,11.55
2018-11-02T03:24:45.282Z,10.60
2018-11-02T03:27:12.846Z,11.40
2018-11-02T03:29:40.410Z,10.68
2018-11-02T03:32:07.938Z,10.50
2018-11-02T03:34:35.513Z,10.82
2018-11-02T03:37:03.091Z,11.93
2018-11-02T03:39:30.625Z,10.85
2018-11-02T03:41:58.196Z,12.03
2018-11-02T03:44:25.753Z,10.35
2018-11-02T03:46:53.289Z,11.90
2018-11-02T03:49:20.815Z,10.45
2018-11-02T03:51:48.385Z,11.05
2018-11-02T03:54:16.085Z,12.40
2018-11-02T03:56:43.702Z,11.93
2018-11-02T03:59:11.743Z,12.00
2018-11-02T04:01:39.312Z,10.55
2018-11-02T04:04:06.891Z,9.70
2018-11-02T04:06:34.452Z,10.18
2018-11-02T04:09:02.041Z,10.68
2018-11-02T04:11:29.664Z,11.33
2018-11-02T04:13:57.209Z,11.38
2018-11-02T04:16:24.768Z,11.48
2018-11-02T04:18:52.313Z,11.33
2018-11-02T04:21:19.877Z,10.50
2018-11-02T04:23:47.421Z,12.80
2018-11-02T04:26:14.977Z,10.93
2018-11-02T04:28:42.558Z,13.00
2018-11-02T04:31:10.272Z,11.65
2018-11-02T04:33:37.657Z,10.48
2018-11-02T04:36:05.499Z,11.95
2018-11-02T04:38:33.048Z,11.97
2018-11-02T04:41:00.635Z,11.70
2018-11-02T04:43:28.170Z,11.30
2018-11-02T04:45:55.733Z,10.35
2018-11-02T04:48:23.291Z,11.08
2018-11-02T04:50:50.864Z,10.38
2018-11-02T04:53:18.366Z,11.00
2018-11-02T04:55:45.968Z,11.03
2018-11-02T04:58:13.547Z,10.85
2018-11-02T05:00:41.097Z,11.48
2018-11-02T05:03:08.672Z,10.93
2018-11-02T05:05:36.217Z,13.35
2018-11-02T05:08:03.780Z,12.13
2018-11-02T05:10:31.316Z,12.78
2018-11-02T05:12:58.970Z,15.53
2018-11-02T05:15:26.493Z,12.30
2018-11-02T05:17:54.051Z,10.15
2018-11-02T05:20:21.615Z,12.98
2018-11-02T05:22:49.130Z,13.15
2018-11-02T05:25:16.719Z,13.62
2018-11-02T05:27:44.301Z,13.10
2018-11-02T05:30:11.865Z,12.55
2018-11-02T05:32:39.691Z,13.18
2018-11-02T05:35:07.326Z,12.78
2018-11-02T05:37:34.908Z,12.88
2018-11-02T05:40:02.483Z,11.60
2018-11-02T05:42:30.001Z,10.90
2018-11-02T05:44:57.548Z,19.73
2018-11-02T05:47:25.218Z,17.30
2018-11-02T05:49:52.638Z,16.45
2018-11-02T05:52:20.207Z,13.62
2018-11-02T05:54:47.733Z,12.45
2018-11-02T05:57:15.278Z,11.03
2018-11-02T05:59:42.901Z,11.38
2018-11-02T06:02:10.457Z,11.20
2018-11-02T06:04:38.031Z,10.00
2018-11-02T06:07:05.657Z,10.40
2018-11-02T06:09:33.232Z,9.68
2018-11-02T06:12:00.839Z,10.70
2018-11-02T06:14:28.390Z,9.45
2018-11-02T06:16:55.975Z,8.58
2018-11-02T06:19:23.524Z,8.60
2018-11-02T06:21:51.183Z,8.20
2018-11-02T06:24:18.872Z,9.90
2018-11-02T06:26:46.334Z,9.15
2018-11-02T06:29:13.928Z,9.60
2018-11-02T06:31:41.504Z,9.77
2018-11-02T06:34:09.079Z,9.23
2018-11-02T06:36:36.725Z,9.60
2018-11-02T06:39:06.691Z,8.27
2018-11-02T06:41:34.268Z,7.73
2018-11-02T06:44:08.431Z,9.08
2018-11-02T06:46:35.974Z,9.80
2018-11-02T06:49:03.563Z,9.07
2018-11-02T06:51:31.158Z,9.77
2018-11-02T06:53:58.713Z,9.53
2018-11-02T06:56:26.307Z,10.32
2018-11-02T06:58:53.862Z,10.82
2018-11-02T07:01:21.442Z,9.58
2018-11-02T07:03:48.995Z,11.35
2018-11-02T07:06:16.616Z,11.55
2018-11-02T07:08:44.177Z,11.85
2018-11-02T07:11:12.079Z,11.22
2018-11-02T07:13:39.617Z,12.40
2018-11-02T07:16:07.147Z,12.93
2018-11-02T07:18:34.792Z,12.68
2018-11-02T07:21:02.374Z,13.40
2018-11-02T07:23:29.930Z,13.32
2018-11-02T07:25:57.517Z,12.90
2018-11-02T07:28:25.163Z,13.28
2018-11-02T07:30:52.847Z,12.00
2018-11-02T07:33:20.834Z,13.98
2018-11-02T07:35:48.372Z,12.93
2018-11-02T07:38:15.932Z,19.30
2018-11-02T07:40:43.475Z,17.45
2018-11-02T07:43:11.040Z,18.73
2018-11-02T07:45:38.649Z,16.50
2018-11-02T07:48:06.215Z,13.68
2018-11-02T07:50:33.794Z,16.25
2018-11-02T07:53:01.417Z,16.35
2018-11-02T07:55:28.925Z,17.20
2018-11-02T07:57:56.518Z,15.75
2018-11-02T08:00:24.087Z,15.90
2018-11-02T08:02:51.646Z,17.05
2018-11-02T08:05:19.214Z,17.50
2018-11-02T08:07:46.793Z,15.83
2018-11-02T08:10:14.352Z,21.42
2018-11-02T08:12:48.482Z,22.45
2018-11-02T08:15:16.102Z,20.12
2018-11-02T08:17:43.777Z,19.40
2018-11-02T08:20:12.285Z,12.50
2018-11-02T08:22:39.982Z,16.73
2018-11-02T08:25:08.559Z,13.93
2018-11-02T08:27:36.144Z,12.75
2018-11-02T08:30:03.917Z,14.50
2018-11-02T08:32:31.458Z,14.55
2018-11-02T08:34:59.024Z,15.35
2018-11-02T08:37:26.548Z,16.05
2018-11-02T08:39:54.194Z,13.95
2018-11-02T08:42:21.726Z,11.28
2018-11-02T08:44:49.357Z,13.43
2018-11-02T08:47:16.955Z,12.50
2018-11-02T08:49:44.511Z,15.23
2018-11-02T08:52:12.154Z,14.70
2018-11-02T08:54:39.686Z,15.40
2018-11-02T08:57:07.290Z,13.72
2018-11-02T08:59:35.031Z,13.40
2018-11-02T09:02:02.442Z,13.80
2018-11-02T09:04:30.017Z,14.38
2018-11-02T09:06:57.610Z,15.85
2018-11-02T09:09:25.164Z,16.80
2018-11-02T09:11:52.836Z,14.38
2018-11-02T09:14:20.342Z,14.25
2018-11-02T09:16:47.908Z,13.50
2018-11-02T09:19:16.769Z,15.83
2018-11-02T09:21:44.647Z,13.37
2018-11-02T09:24:12.374Z,14.47
2018-11-02T09:26:39.991Z,15.28
2018-11-02T09:29:07.719Z,13.10
2018-11-02T09:31:35.250Z,13.73
2018-11-02T09:34:02.801Z,14.30
2018-11-02T09:36:30.375Z,14.53
2018-11-02T09:38:57.947Z,14.80
2018-11-02T09:41:25.512Z,14.97
2018-11-02T09:43:53.136Z,17.10
2018-11-02T09:46:20.755Z,15.27
2018-11-02T09:48:48.488Z,14.90
2018-11-02T09:51:16.171Z,15.03
2018-11-02T09:53:43.705Z,15.10
2018-11-02T09:56:11.540Z,16.30
2018-11-02T09:58:39.116Z,17.80
2018-11-02T10:01:06.871Z,17.77
2018-11-02T10:03:34.445Z,16.37
2018-11-02T10:06:02.135Z,16.63
2018-11-02T10:08:29.767Z,17.43
2018-11-02T10:10:57.315Z,16.03
2018-11-02T10:13:24.887Z,18.00
2018-11-02T10:15:52.449Z,16.13
2018-11-02T10:18:20.061Z,14.80
2018-11-02T10:20:47.634Z,15.13
2018-11-02T10:23:15.197Z,15.33
2018-11-02T10:25:42.814Z,14.30
2018-11-02T10:28:10.570Z,16.17
2018-11-02T10:30:38.263Z,14.83
2018-11-02T10:33:05.839Z,15.30
2018-11-02T10:35:33.666Z,14.80
2018-11-02T10:38:01.948Z,16.00
2018-11-02T10:40:31.496Z,15.67
2018-11-02T10:43:01.818Z,17.47
2018-11-02T10:45:32.092Z,16.20
2018-11-02T10:48:00.621Z,19.17
2018-11-02T10:50:28.226Z,16.57
2018-11-02T10:52:55.853Z,17.90
2018-11-02T10:55:23.432Z,19.40
2018-11-02T10:57:51.059Z,19.47
2018-11-02T11:00:24.295Z,19.00
2018-11-02T11:02:51.948Z,19.33
2018-11-02T11:05:19.647Z,17.33
2018-11-02T11:07:47.184Z,15.30
2018-11-02T11:10:14.814Z,16.93
2018-11-02T11:12:42.697Z,15.77
2018-11-02T11:15:10.085Z,16.33
2018-11-02T11:17:37.768Z,16.40
2018-11-02T11:20:08.513Z,16.33
2018-11-02T11:22:36.109Z,15.90
2018-11-02T11:25:03.825Z,15.50
2018-11-02T11:27:31.499Z,23.70
2018-11-02T11:29:59.061Z,16.40
2018-11-02T11:32:29.544Z,18.17
2018-11-02T11:34:57.186Z,21.73
2018-11-02T11:37:24.771Z,22.07
2018-11-02T11:39:52.510Z,19.80
2018-11-02T11:42:20.077Z,17.67
2018-11-02T11:44:47.685Z,20.60
2018-11-02T11:47:15.327Z,18.43
2018-11-02T11:49:42.943Z,17.97
2018-11-02T11:52:10.645Z,17.10
2018-11-02T11:54:38.405Z,17.67
2018-11-02T11:57:06.604Z,18.30
2018-11-02T11:59:34.207Z,19.00
2018-11-02T12:02:01.865Z,17.97
2018-11-02T12:04:29.572Z,19.67
2018-11-02T12:06:57.080Z,17.80
2018-11-02T12:09:24.699Z,18.43
2018-11-02T12:11:52.321Z,17.97
2018-11-02T12:14:19.917Z,18.00
2018-11-02T12:16:47.593Z,18.10
2018-11-02T12:19:15.296Z,18.80
2018-11-02T12:21:42.894Z,19.10
2018-11-02T12:24:11.490Z,17.80
2018-11-02T12:26:39.099Z,18.43
2018-11-02T12:29:06.751Z,17.43
2018-11-02T12:31:34.345Z,20.70
2018-11-02T12:34:01.895Z,30.37
2018-11-02T12:36:30.006Z,24.47
2018-11-02T12:38:57.648Z,21.60
2018-11-02T12:41:25.236Z,20.43
2018-11-02T12:43:53.183Z,21.50
2018-11-02T12:46:20.960Z,18.03
2018-11-02T12:48:49.150Z,18.73
2018-11-02T12:51:16.496Z,17.03
2018-11-02T12:53:44.100Z,17.17
2018-11-02T12:56:11.749Z,18.23
2018-11-02T12:58:39.333Z,16.50
2018-11-02T13:01:06.930Z,16.97
2018-11-02T13:03:34.535Z,18.40
2018-11-02T13:06:02.113Z,17.67
2018-11-02T13:08:29.765Z,16.40
2018-11-02T13:10:57.316Z,19.00
2018-11-02T13:13:24.921Z,16.63
2018-11-02T13:15:52.552Z,17.50
2018-11-02T13:18:20.433Z,15.03
2018-11-02T13:20:48.028Z,15.07
2018-11-02T13:23:15.606Z,16.63
2018-11-02T13:25:43.321Z,17.97
2018-11-02T13:28:10.818Z,17.47
2018-11-02T13:30:38.477Z,17.83
2018-11-02T13:33:06.010Z,18.87
2018-11-02T13:35:33.617Z,18.73
2018-11-02T13:38:01.235Z,20.10
2018-11-02T13:40:28.802Z,19.40
2018-11-02T13:42:56.518Z,22.17
2018-11-02T13:45:24.015Z,20.87
2018-11-02T13:47:51.638Z,19.57
2018-11-02T13:50:19.259Z,24.10
2018-11-02T13:52:46.790Z,20.00
2018-11-02T13:55:14.515Z,27.20
2018-11-02T13:57:42.394Z,22.33
2018-11-02T14:00:12.162Z,21.23
2018-11-02T14:02:39.772Z,20.07
2018-11-02T14:05:08.556Z,19.23
2018-11-02T14:07:36.119Z,17.20
2018-11-02T14:10:04.013Z,21.33
2018-11-02T14:12:31.669Z,18.33
2018-11-02T14:14:59.250Z,18.80
2018-11-02T14:17:26.823Z,19.40
2018-11-02T14:19:54.393Z,20.10
2018-11-02T14:22:21.967Z,21.70
2018-11-02T14:24:49.565Z,21.93
2018-11-02T14:27:17.099Z,19.13
2018-11-02T14:29:44.650Z,18.67
2018-11-02T14:32:12.234Z,16.53
2018-11-02T14:34:39.834Z,16.27
2018-11-02T14:37:07.421Z,18.83
2018-11-02T14:39:35.281Z,19.07
2018-11-02T14:42:02.877Z,18.17
2018-11-02T14:44:30.499Z,18.60
2018-11-02T14:46:58.093Z,16.70
2018-11-02T14:49:25.672Z,18.10
2018-11-02T14:51:53.297Z,17.37
2018-11-02T14:54:20.874Z,17.80
2018-11-02T14:56:48.470Z,18.20
2018-11-02T14:59:16.049Z,17.10
2018-11-02T15:01:43.643Z,16.23
2018-11-02T15:04:11.268Z,16.43
2018-11-02T15:06:38.903Z,17.83
2018-11-02T15:09:09.009Z,17.83
2018-11-02T15:11:36.843Z,17.53
2018-11-02T15:14:04.742Z,17.10
2018-11-02T15:16:32.328Z,17.80
2018-11-02T15:18:59.897Z,16.30
2018-11-02T15:21:27.468Z,16.57
2018-11-02T15:23:55.105Z,16.73
2018-11-02T15:26:22.730Z,16.30
2018-11-02T15:28:50.278Z,16.67
2018-11-02T15:31:17.870Z,16.63
2018-11-02T15:33:45.452Z,17.00
2018-11-02T15:36:13.060Z,16.93
2018-11-02T15:38:40.624Z,19.73
2018-11-02T15:41:08.230Z,18.50
2018-11-02T15:43:35.812Z,16.47
2018-11-02T15:46:03.435Z,17.80
2018-11-02T15:48:31.026Z,18.30
2018-11-02T15:50:58.572Z,17.90
2018-11-02T15:53:26.298Z,18.00
2018-11-02T15:55:53.887Z,17.42
2018-11-02T15:58:21.442Z,16.47
2018-11-02T16:00:49.056Z,16.90
2018-11-02T16:03:16.628Z,15.23
2018-11-02T16:05:44.201Z,16.20
2018-11-02T16:08:11.858Z,14.23
2018-11-02T16:10:39.478Z,16.73
2018-11-02T16:13:07.056Z,13.40
2018-11-02T16:15:34.666Z,15.13
2018-11-02T16:18:02.245Z,16.50
2018-11-02T16:20:29.916Z,15.90
2018-11-02T16:22:57.515Z,15.50
2018-11-02T16:25:25.113Z,16.00
2018-11-02T16:27:52.763Z,16.10
2018-11-02T16:30:20.364Z,15.87
2018-11-02T16:32:48.006Z,15.83
2018-11-02T16:35:15.635Z,8.77
2018-11-02T16:37:43.250Z,12.63
2018-11-02T16:40:12.918Z,15.00
2018-11-02T16:42:40.726Z,13.93
2018-11-02T16:45:09.864Z,12.67
2018-11-02T16:47:37.663Z,14.10
2018-11-02T16:50:05.932Z,15.90
2018-11-02T16:52:33.556Z,16.00
2018-11-02T16:55:01.246Z,18.27
2018-11-02T16:57:28.876Z,16.40
2018-11-02T16:59:56.488Z,20.53
2018-11-02T17:02:24.191Z,21.20
2018-11-02T17:04:51.705Z,21.97
2018-11-02T17:07:19.318Z,20.10
2018-11-02T17:09:46.950Z,19.50
2018-11-02T17:12:14.574Z,20.30
2018-11-02T17:14:42.173Z,19.33
2018-11-02T17:17:09.762Z,19.23
2018-11-02T17:19:37.352Z,18.67
2018-11-02T17:22:05.081Z,17.03
2018-11-02T17:24:32.733Z,20.40
2018-11-02T17:27:00.370Z,20.50
2018-11-02T17:29:27.961Z,20.80
2018-11-02T17:31:55.576Z,21.10
2018-11-02T17:34:23.216Z,21.60
2018-11-02T17:36:50.984Z,22.83
2018-11-02T17:39:18.611Z,19.67
2018-11-02T17:41:46.223Z,21.17
2018-11-02T17:44:13.888Z,21.77
2018-11-02T17:46:41.530Z,22.93
2018-11-02T17:49:09.170Z,22.30
2018-11-02T17:51:36.797Z,21.93
2018-11-02T17:54:04.516Z,21.47
2018-11-02T17:56:32.385Z,24.00
2018-11-02T17:59:00.087Z,24.20
2018-11-02T18:01:27.749Z,25.53
2018-11-02T18:03:55.386Z,23.90
2018-11-02T18:06:23.245Z,26.30
2018-11-02T18:08:50.842Z,24.00
2018-11-02T18:11:18.573Z,24.97
2018-11-02T18:13:46.260Z,21.87
2018-11-02T18:16:14.172Z,25.70
2018-11-02T18:18:41.859Z,25.40
2018-11-02T18:21:09.494Z,24.33
2018-11-02T18:23:37.147Z,26.37
2018-11-02T18:26:05.172Z,27.83
2018-11-02T18:28:32.900Z,27.40
2018-11-02T18:31:00.537Z,27.67
2018-11-02T18:33:28.299Z,26.90
2018-11-02T18:35:55.974Z,27.50
2018-11-02T18:38:23.743Z,27.70
2018-11-02T18:40:51.475Z,26.57
2018-11-02T18:43:19.784Z,26.27
2018-11-02T18:45:47.606Z,25.50
2018-11-02T18:48:15.352Z,25.23
2018-11-02T18:50:42.973Z,25.77
2018-11-02T18:53:11.155Z,24.63
2018-11-02T18:55:38.898Z,25.50
2018-11-02T18:58:06.682Z,30.93
2018-11-02T19:00:34.319Z,28.37
2018-11-02T19:03:02.012Z,25.97
2018-11-02T19:05:29.723Z,26.40
2018-11-02T19:07:58.328Z,21.20
2018-11-02T19:10:26.052Z,26.87
2018-11-02T19:12:53.730Z,23.70
2018-11-02T19:15:21.446Z,25.13
2018-11-02T19:17:49.400Z,22.90
2018-11-02T19:20:17.180Z,24.63
2018-11-02T19:22:45.437Z,24.00
2018-11-02T19:25:14.167Z,28.30
2018-11-02T19:27:43.613Z,29.67
2018-11-02T19:30:12.224Z,30.13
2018-11-02T19:32:40.028Z,31.30
2018-11-02T19:35:13.602Z,27.90
2018-11-02T19:37:50.733Z,27.40
2018-11-02T19:40:18.422Z,27.00
2018-11-02T19:42:46.427Z,28.80
2018-11-02T19:45:14.136Z,27.67
2018-11-02T19:47:47.489Z,27.10
2018-11-02T19:50:16.270Z,24.37
2018-11-02T19:52:44.189Z,23.43
2018-11-02T19:55:13.271Z,21.33
2018-11-02T19:57:42.179Z,22.17
2018-11-02T20:00:19.388Z,22.13
2018-11-02T20:02:47.077Z,23.53
2018-11-02T20:05:18.038Z,21.97
2018-11-02T20:07:45.994Z,21.43
2018-11-02T20:10:14.607Z,23.57
2018-11-02T20:12:42.702Z,26.10
2018-11-02T20:15:11.469Z,28.40
2018-11-02T20:17:40.026Z,27.37
2018-11-02T20:20:09.321Z,30.93
2018-11-02T20:22:37.583Z,31.13
2018-11-02T20:25:06.317Z,43.23
2018-11-02T20:27:34.904Z,39.07
2018-11-02T20:30:02.725Z,33.20
2018-11-02T20:32:35.518Z,39.90
2018-11-02T20:35:03.692Z,26.63
2018-11-02T20:37:32.054Z,26.90
2018-11-02T20:39:59.870Z,25.47
2018-11-02T20:42:27.637Z,26.10
2018-11-02T20:44:55.282Z,24.83
2018-11-02T20:47:23.152Z,25.77
2018-11-02T20:49:50.987Z,25.70
2018-11-02T20:52:18.749Z,25.80
2018-11-02T20:54:46.519Z,25.30
2018-11-02T20:57:15.016Z,24.33
2018-11-02T20:59:42.778Z,23.00
2018-11-02T21:02:10.498Z,25.47
2018-11-02T21:04:38.253Z,24.27
2018-11-02T21:07:06.024Z,23.40
2018-11-02T21:09:33.944Z,25.13
2018-11-02T21:12:01.567Z,25.77
2018-11-02T21:14:31.000Z,25.60
2018-11-02T21:16:59.192Z,24.63
2018-11-02T21:19:26.996Z,23.80
2018-11-02T21:21:54.775Z,26.37
2018-11-02T21:24:22.454Z,25.07
2018-11-02T21:26:50.429Z,23.77
2018-11-02T21:29:18.113Z,24.97
2018-11-02T21:31:45.822Z,25.00
2018-11-02T21:34:13.586Z,24.52
2018-11-02T21:36:41.273Z,27.17
2018-11-02T21:39:10.342Z,24.40
2018-11-02T21:41:38.849Z,24.43
2018-11-02T21:44:06.705Z,26.53
2018-11-02T21:46:34.506Z,24.00
2018-11-02T21:49:02.209Z,23.50
2018-11-02T21:51:29.903Z,24.63
2018-11-02T21:53:57.624Z,25.87
2018-11-02T21:56:25.345Z,25.10
2018-11-02T21:58:53.009Z,24.60
2018-11-02T22:01:20.685Z,23.07
2018-11-02T22:03:48.359Z,21.97
2018-11-02T22:06:16.029Z,22.30
2018-11-02T22:08:43.695Z,21.10
2018-11-02T22:11:11.350Z,21.80
2018-11-02T22:13:39.048Z,20.87
2018-11-02T22:16:06.706Z,22.40
2018-11-02T22:28:37.139Z,24.17
2018-11-02T22:31:04.929Z,22.70
2018-11-02T22:33:38.305Z,22.77
2018-11-02T22:36:06.006Z,24.93
2018-11-02T22:38:33.654Z,25.50
2018-11-02T22:41:01.347Z,23.30
2018-11-02T22:43:29.942Z,24.00
2018-11-02T22:45:57.566Z,26.37
2018-11-02T22:48:25.834Z,25.77
2018-11-02T22:50:55.163Z,25.52
2018-11-02T22:53:22.950Z,24.60
2018-11-02T22:55:50.497Z,23.93
2018-11-02T22:58:18.136Z,25.03
2018-11-02T23:00:51.258Z,28.20
2018-11-02T23:03:18.913Z,25.90
2018-11-02T23:05:46.619Z,25.60
2018-11-02T23:08:14.141Z,26.17
2018-11-02T23:10:41.684Z,24.40
2018-11-02T23:13:09.247Z,25.73
2018-11-02T23:15:36.838Z,26.33
2018-11-02T23:18:04.484Z,24.33
2018-11-02T23:20:32.080Z,23.70
2018-11-02T23:22:59.628Z,26.33
2018-11-02T23:25:27.201Z,22.53
2018-11-02T23:27:54.725Z,25.90
2018-11-02T23:30:22.309Z,27.17
2018-11-02T23:32:49.886Z,27.60
2018-11-02T23:35:17.486Z,24.20
2018-11-02T23:37:45.145Z,25.67
2018-11-02T23:40:13.013Z,25.47
2018-11-02T23:42:40.728Z,26.90
2018-11-02T23:45:09.288Z,26.13
2018-11-02T23:47:37.009Z,26.43
2018-11-02T23:50:06.383Z,26.33
2018-11-02T23:52:33.955Z,26.03
2018-11-02T23:55:01.533Z,27.93
2018-11-02T23:57:29.127Z,28.20
2018-11-02T23:59:56.713Z,26.87
